Terminal Aerodrome Forecast
Issued by NWS

Home | Current Version | Previous Version | Text Only | Print | Product List | Glossary On
Versions: 1 2 3 4 5 6 7 8 9 10 11 12 13 14 15 16 17 18 19 20
000
FTUS43 KMQT 051132
TAFSAW
TAF
KSAW 051132Z 0512/0612 30004KT P6SM SKC
     FM051800 26006KT P6SM SCT040
     FM060300 22006KT P6SM FEW150
      AMD LTD TO CLD VIS AND WIND 0603/0611=

USA.gov is the U.S. government's official web portal to all federal, state and local government web resources and services.